Aeroporto :
LOGIN :

Iscrizione | Disclaimer

   EN    FR    IT 

 










Sommario :    VFR   VFR Marginale   IFR   IFR Intensivo   IFR Molto Intensivo
Visibilità : 
Base nubi : 
>= 8 km
>= 3000ft
5 / 8 km
1000 / 3000 ft
1500m / 5 km
500 / 1000 ft
800 / 1500m
200 / 500 ft
< 800m
< 200 ft
Simboli :   Temporali  Nebbia  Neve Forte  Precipitazioni Forti  Vento > 20 kt
SIGMETs :   Varie  Temporali  Ghiacco  Turbolenza  Onda orograficha  Ceneri Vulcaniche






- Altitudine del aeroporto : 423 ft
- Codice IATA : PIS


LFBI - Poitiers

ULTIMO METAR :
  • 160800Z AUTO 15003KT CAVOK 09/08 Q1003 NOSIG

METARs OBSOLETI :
  • 160730Z AUTO 14004KT CAVOK 09/08 Q1003 NOSIG
  • 160700Z AUTO 14004KT CAVOK 09/08 Q1003 NOSIG
  • 160630Z AUTO 15004KT CAVOK 10/09 Q1003 NOSIG
  • 160600Z AUTO 14004KT CAVOK 10/09 Q1003 NOSIG
  • 160530Z AUTO 15003KT CAVOK 10/09 Q1004 NOSIG

TAF TAF LFBI
Valido dal 16 a 06 ore il 17 a 06 ore UTC


160500Z 1606/1706 16005KT CAVOK
FM161200 17010KT CAVOK
BECMG 1620/1624 17015G25KT
PROB40 1700/1706 OVC014



MetMap, La meteo Aeronautica in un colpo d'occhio ! - Copyright ORBIFLY Dicembre 2007 - Disclaimer

ORBIFLY MET'MAP TEAM :

Programmazione e sviluppo : Alexandra Zaïnal
Concezione : Baudouin d'Aumeries
Aiuto per la programmazione : Marc-Olivier Méhu
Supporto tecnico e logistico : Manuel Goepfert
Aiuto per la traduzione : Arnaldo La Scala

Contatto : metmap@orbifly.com




FONTI E CREDITI :

   NOAA